createdAt,value
2022-09-30T00:01:11.000Z,7.7
2022-09-30T00:02:27.000Z,7.7
2022-09-30T00:03:43.000Z,7.7
2022-09-30T00:04:59.000Z,7.6
2022-09-30T00:06:15.000Z,7.6
2022-09-30T00:07:31.000Z,7.6
2022-09-30T00:08:48.142Z,7.5
2022-09-30T00:10:04.000Z,7.5
2022-09-30T00:11:20.000Z,7.5
2022-09-30T00:12:36.000Z,7.5
2022-09-30T00:13:52.000Z,7.5
2022-09-30T00:15:08.000Z,7.5
2022-09-30T00:16:25.000Z,7.6
2022-09-30T00:17:41.000Z,7.7
2022-09-30T00:18:57.000Z,7.7
2022-09-30T00:20:12.000Z,7.7
2022-09-30T00:21:28.000Z,7.8
2022-09-30T00:22:45.000Z,7.8
2022-09-30T00:24:01.000Z,7.8
2022-09-30T00:25:17.000Z,7.7
2022-09-30T00:26:33.000Z,7.7
2022-09-30T00:27:49.000Z,7.7
2022-09-30T00:29:05.000Z,7.7
2022-09-30T00:30:22.000Z,7.6
2022-09-30T00:31:38.000Z,7.6
2022-09-30T00:32:54.000Z,7.5
2022-09-30T00:34:10.000Z,7.5
2022-09-30T00:35:26.000Z,7.5
2022-09-30T00:36:42.000Z,7.5
2022-09-30T00:37:58.000Z,7.4
2022-09-30T00:39:14.000Z,7.4
2022-09-30T00:40:30.000Z,7.3
2022-09-30T00:41:46.000Z,7.3
2022-09-30T00:43:03.000Z,7.3
2022-09-30T00:44:19.000Z,7.3
2022-09-30T00:45:35.000Z,7.3
2022-09-30T00:46:51.000Z,7.3
2022-09-30T00:48:07.000Z,7.3
2022-09-30T00:49:23.000Z,7.3
2022-09-30T00:50:40.000Z,7.3
2022-09-30T00:51:56.000Z,7.2
2022-09-30T00:53:11.000Z,7.2
2022-09-30T00:54:27.000Z,7.2
2022-09-30T00:55:43.000Z,7.2
2022-09-30T00:57:00.000Z,7.2
2022-09-30T00:58:16.000Z,7.2
2022-09-30T00:59:32.000Z,7.2
2022-09-30T01:00:48.000Z,7.2
2022-09-30T01:02:04.000Z,7.2
2022-09-30T01:03:21.000Z,7.2
2022-09-30T01:04:37.000Z,7.2
2022-09-30T01:05:53.000Z,7.2
2022-09-30T01:07:09.000Z,7.2
2022-09-30T01:08:25.000Z,7.2
2022-09-30T01:09:41.000Z,7.2
2022-09-30T01:10:57.000Z,7.2
2022-09-30T01:12:13.000Z,7.2
2022-09-30T01:13:29.000Z,7.2
2022-09-30T01:14:45.000Z,7.2
2022-09-30T01:16:01.000Z,7.2
2022-09-30T01:17:18.000Z,7.2
2022-09-30T01:18:34.000Z,7.2
2022-09-30T01:19:50.000Z,7.2
2022-09-30T01:21:06.000Z,7.2
2022-09-30T01:22:22.000Z,7.2
2022-09-30T01:23:39.000Z,7.2
2022-09-30T01:24:55.000Z,7.2
2022-09-30T01:26:10.000Z,7.2
2022-09-30T01:27:26.000Z,7.2
2022-09-30T01:28:42.000Z,7.2
2022-09-30T01:29:59.000Z,7.2
2022-09-30T01:31:15.000Z,7.2
2022-09-30T01:32:31.000Z,7.2
2022-09-30T01:33:47.000Z,7.2
2022-09-30T01:35:03.000Z,7.2
2022-09-30T01:36:20.000Z,7.2
2022-09-30T01:37:36.000Z,7.2
2022-09-30T01:38:52.000Z,7.2
2022-09-30T01:40:08.000Z,7.2
2022-09-30T01:41:24.000Z,7.2
2022-09-30T01:42:40.000Z,7.2
2022-09-30T01:43:56.000Z,7.2
2022-09-30T01:45:12.000Z,7.2
2022-09-30T01:46:28.000Z,7.2
2022-09-30T01:47:44.000Z,7.2
2022-09-30T01:49:00.000Z,7.2
2022-09-30T01:50:16.000Z,7.2
2022-09-30T01:51:32.000Z,7.2
2022-09-30T01:52:48.000Z,7.2
2022-09-30T01:54:04.000Z,7.2
2022-09-30T01:55:20.000Z,7.2
2022-09-30T01:56:37.000Z,7.2
2022-09-30T01:57:53.000Z,7.2
2022-09-30T01:59:09.000Z,7.2
2022-09-30T02:00:25.000Z,7.2
2022-09-30T02:01:41.000Z,7.2
2022-09-30T02:02:58.000Z,7.2
2022-09-30T02:04:14.000Z,7.2
2022-09-30T02:05:30.000Z,7.2
2022-09-30T02:06:45.000Z,7.2
2022-09-30T02:08:01.000Z,7.1
2022-09-30T02:09:17.000Z,7.1
2022-09-30T02:10:34.000Z,7.1
2022-09-30T02:11:50.000Z,7.1
2022-09-30T02:13:06.000Z,7.1
2022-09-30T02:14:22.000Z,7.1
2022-09-30T02:15:38.000Z,7.1
2022-09-30T02:16:55.000Z,7.1
2022-09-30T02:18:11.000Z,7.1
2022-09-30T02:19:27.000Z,7.1
2022-09-30T02:20:43.000Z,7
2022-09-30T02:21:59.000Z,7
2022-09-30T02:23:15.000Z,7
2022-09-30T02:24:31.000Z,7.1
2022-09-30T02:25:47.000Z,7.1
2022-09-30T02:27:03.000Z,7
2022-09-30T02:28:19.000Z,7
2022-09-30T02:29:36.000Z,7
2022-09-30T02:30:52.000Z,6.9
2022-09-30T02:32:08.000Z,6.9
2022-09-30T02:33:24.000Z,6.9
2022-09-30T02:34:40.000Z,6.9
2022-09-30T02:35:56.000Z,7
2022-09-30T02:37:13.000Z,7
2022-09-30T02:38:29.000Z,6.9
2022-09-30T02:39:44.000Z,6.9
2022-09-30T02:41:00.000Z,7
2022-09-30T02:42:16.000Z,7
2022-09-30T02:43:33.000Z,6.9
2022-09-30T02:44:49.000Z,6.9
2022-09-30T02:46:05.000Z,6.9
2022-09-30T02:47:21.000Z,6.9
2022-09-30T02:48:37.000Z,6.9
2022-09-30T02:49:54.000Z,6.9
2022-09-30T02:51:10.000Z,6.8
2022-09-30T02:52:26.000Z,6.8
2022-09-30T02:53:42.000Z,6.8
2022-09-30T02:54:58.000Z,6.8
2022-09-30T02:56:13.000Z,6.7
2022-09-30T02:57:30.000Z,6.7
2022-09-30T02:58:46.000Z,6.8
2022-09-30T03:00:02.000Z,6.8
2022-09-30T03:01:18.000Z,6.8
2022-09-30T03:02:34.000Z,6.8
2022-09-30T03:03:51.000Z,6.8
2022-09-30T03:05:07.000Z,6.8
2022-09-30T03:06:23.000Z,6.8
2022-09-30T03:07:39.000Z,6.8
2022-09-30T03:08:55.000Z,6.8
2022-09-30T03:10:12.000Z,6.7
2022-09-30T03:11:28.000Z,6.7
2022-09-30T03:12:43.000Z,6.7
2022-09-30T03:13:59.000Z,6.6
2022-09-30T03:15:15.000Z,6.6
2022-09-30T03:16:32.230Z,6.6
2022-09-30T03:17:48.000Z,6.6
2022-09-30T03:19:04.000Z,6.6
2022-09-30T03:20:20.000Z,6.5
2022-09-30T03:21:36.000Z,6.5
2022-09-30T03:22:52.000Z,6.5
2022-09-30T03:24:09.000Z,6.6
2022-09-30T03:25:25.000Z,6.6
2022-09-30T03:26:41.000Z,6.6
2022-09-30T03:27:57.000Z,6.6
2022-09-30T03:29:12.000Z,6.6
2022-09-30T03:30:29.000Z,6.6
2022-09-30T03:31:45.000Z,6.6
2022-09-30T03:33:01.000Z,6.6
2022-09-30T03:34:17.000Z,6.6
2022-09-30T03:35:33.000Z,6.6
2022-09-30T03:36:50.000Z,6.5
2022-09-30T03:38:06.000Z,6.5
2022-09-30T03:39:22.000Z,6.5
2022-09-30T03:40:38.000Z,6.5
2022-09-30T03:41:54.000Z,6.5
2022-09-30T03:43:10.000Z,6.5
2022-09-30T03:44:27.000Z,6.5
2022-09-30T03:45:42.000Z,6.5
2022-09-30T03:46:58.000Z,6.5
2022-09-30T03:48:14.000Z,6.5
2022-09-30T03:49:30.000Z,6.5
2022-09-30T03:50:47.000Z,6.5
2022-09-30T03:52:03.000Z,6.5
2022-09-30T03:53:19.000Z,6.5
2022-09-30T03:54:35.000Z,6.5
2022-09-30T03:55:51.000Z,6.5
2022-09-30T03:57:08.000Z,6.4
2022-09-30T03:58:24.000Z,6.4
2022-09-30T03:59:40.000Z,6.4
2022-09-30T04:00:56.000Z,6.4
2022-09-30T04:02:11.000Z,6.3
2022-09-30T04:03:28.000Z,6.3
2022-09-30T04:04:44.000Z,6.3
2022-09-30T04:06:00.000Z,6.2
2022-09-30T04:07:16.000Z,6.3
2022-09-30T04:08:32.000Z,6.2
2022-09-30T04:09:48.000Z,6.2
2022-09-30T04:11:05.000Z,6.2
2022-09-30T04:12:21.000Z,6.1
2022-09-30T04:13:37.000Z,6.1
2022-09-30T04:14:53.000Z,6.2
2022-09-30T04:16:09.000Z,6.1
2022-09-30T04:17:26.000Z,6.2
2022-09-30T04:18:41.000Z,6.2
2022-09-30T04:19:57.000Z,6.2
2022-09-30T04:21:13.000Z,6.2
2022-09-30T04:22:29.000Z,6.2
2022-09-30T04:23:46.000Z,6.2
2022-09-30T04:25:02.000Z,6.1
2022-09-30T04:26:18.000Z,6.1
2022-09-30T04:27:34.000Z,6.1
2022-09-30T04:28:50.000Z,6
2022-09-30T04:30:06.000Z,6
2022-09-30T04:31:23.000Z,6
2022-09-30T04:32:39.000Z,6
2022-09-30T04:33:55.000Z,6
2022-09-30T04:35:10.000Z,6
2022-09-30T04:36:26.000Z,6
2022-09-30T04:37:43.000Z,6.1
2022-09-30T04:38:59.000Z,6.1
2022-09-30T04:40:15.000Z,6.1
2022-09-30T04:41:31.000Z,6
2022-09-30T04:42:47.000Z,6
2022-09-30T04:44:04.000Z,6
2022-09-30T04:45:20.000Z,6
2022-09-30T04:46:36.000Z,6
2022-09-30T04:47:52.000Z,5.9
2022-09-30T04:49:08.000Z,5.9
2022-09-30T04:50:24.000Z,5.9
2022-09-30T04:51:40.000Z,5.9
2022-09-30T04:52:56.000Z,5.9
2022-09-30T04:54:12.000Z,5.9
2022-09-30T04:55:28.000Z,5.9
2022-09-30T04:56:44.000Z,5.9
2022-09-30T04:58:01.000Z,5.9
2022-09-30T04:59:17.000Z,6
2022-09-30T05:00:33.000Z,5.9
2022-09-30T05:01:49.000Z,5.9
2022-09-30T05:03:05.000Z,5.9
2022-09-30T05:04:22.000Z,5.9
2022-09-30T05:05:38.000Z,5.9
2022-09-30T05:06:54.000Z,5.9
2022-09-30T05:08:09.000Z,5.9
2022-09-30T05:09:25.000Z,6
2022-09-30T05:10:42.000Z,6
2022-09-30T05:11:58.000Z,6
2022-09-30T05:13:14.000Z,5.9
2022-09-30T05:14:30.000Z,5.9
2022-09-30T05:15:46.000Z,5.9
2022-09-30T05:17:02.000Z,5.8
2022-09-30T05:18:19.000Z,5.8
2022-09-30T05:19:35.000Z,5.8
2022-09-30T05:20:51.000Z,5.8
2022-09-30T05:22:07.000Z,5.9
2022-09-30T05:23:23.000Z,5.9
2022-09-30T05:24:39.000Z,5.9
2022-09-30T05:25:55.000Z,5.9
2022-09-30T05:27:11.000Z,5.9
2022-09-30T05:28:27.000Z,5.8
2022-09-30T05:29:43.000Z,5.8
2022-09-30T05:31:00.000Z,5.8
2022-09-30T05:32:16.000Z,5.9
2022-09-30T05:33:32.000Z,5.8
2022-09-30T05:34:48.000Z,5.8
2022-09-30T05:36:04.000Z,5.8
2022-09-30T05:37:20.000Z,5.8
2022-09-30T05:38:37.000Z,5.8
2022-09-30T05:39:53.000Z,5.8
2022-09-30T05:41:08.000Z,5.8
2022-09-30T05:42:24.000Z,5.8
2022-09-30T05:43:40.000Z,5.8
2022-09-30T05:44:57.000Z,5.7
2022-09-30T05:46:13.000Z,5.7
2022-09-30T05:47:29.000Z,5.8
2022-09-30T05:48:45.000Z,5.8
2022-09-30T05:50:01.000Z,5.9
2022-09-30T05:51:18.000Z,5.9
2022-09-30T05:52:34.000Z,6
2022-09-30T05:53:50.000Z,6
2022-09-30T05:55:06.000Z,6
2022-09-30T05:56:22.000Z,6
2022-09-30T05:57:38.000Z,6
2022-09-30T05:58:54.000Z,6
2022-09-30T06:00:10.000Z,6
2022-09-30T06:01:26.000Z,6
2022-09-30T06:02:42.000Z,6.2
2022-09-30T06:03:58.000Z,6.4
2022-09-30T06:05:14.000Z,6.5
2022-09-30T06:06:30.000Z,6.5
2022-09-30T06:07:46.000Z,6.5
2022-09-30T06:09:02.000Z,6.5
2022-09-30T06:10:18.000Z,6.4
2022-09-30T06:11:35.000Z,6.4
2022-09-30T06:12:51.000Z,6.4
2022-09-30T06:14:07.000Z,6.7
2022-09-30T06:15:23.000Z,6.8
2022-09-30T06:16:39.000Z,6.9
2022-09-30T06:17:56.000Z,6.9
2022-09-30T06:19:12.000Z,6.9
2022-09-30T06:20:28.000Z,6.8
2022-09-30T06:21:44.000Z,6.8
2022-09-30T06:22:59.000Z,6.7
2022-09-30T06:24:15.000Z,6.7
2022-09-30T06:25:32.000Z,6.7
2022-09-30T06:26:48.000Z,6.8
2022-09-30T06:28:04.000Z,6.8
2022-09-30T06:29:20.000Z,6.8
2022-09-30T06:30:36.000Z,7
2022-09-30T06:31:53.000Z,7.2
2022-09-30T06:33:09.000Z,7.3
2022-09-30T06:34:25.000Z,7.5
2022-09-30T06:35:41.000Z,7.7
2022-09-30T06:36:57.000Z,7.8
2022-09-30T06:38:14.000Z,7.9
2022-09-30T06:39:29.000Z,8.1
2022-09-30T06:40:45.000Z,8.1
2022-09-30T06:42:01.000Z,8
2022-09-30T06:43:17.000Z,7.9
2022-09-30T06:44:34.000Z,7.8
2022-09-30T06:45:50.000Z,7.9
2022-09-30T06:47:06.000Z,7.8
2022-09-30T06:48:22.000Z,7.7
2022-09-30T06:49:38.000Z,7.6
2022-09-30T06:50:54.000Z,7.6
2022-09-30T06:52:11.000Z,7.6
2022-09-30T06:53:27.000Z,7.5
2022-09-30T06:54:43.000Z,7.5
2022-09-30T06:55:58.000Z,7.5
2022-09-30T06:57:14.000Z,7.6
2022-09-30T06:58:31.000Z,7.6
2022-09-30T06:59:47.000Z,7.6
2022-09-30T07:01:03.000Z,7.6
2022-09-30T07:02:19.000Z,7.7
2022-09-30T07:03:35.000Z,7.8
2022-09-30T07:04:52.000Z,8
2022-09-30T07:06:08.000Z,8.1
2022-09-30T07:07:24.000Z,8.1
2022-09-30T07:08:40.000Z,8.2
2022-09-30T07:09:56.000Z,8.4
2022-09-30T07:11:12.000Z,8.6
2022-09-30T07:12:28.000Z,8.8
2022-09-30T07:13:44.000Z,8.9
2022-09-30T07:15:00.000Z,8.8
2022-09-30T07:16:16.000Z,8.8
2022-09-30T07:17:32.000Z,8.6
2022-09-30T07:18:49.000Z,8.6
2022-09-30T07:20:05.000Z,8.5
2022-09-30T07:21:21.000Z,8.4
2022-09-30T07:22:37.000Z,8.4
2022-09-30T07:23:53.000Z,8.3
2022-09-30T07:25:10.000Z,8.4
2022-09-30T07:26:26.000Z,8.5
2022-09-30T07:27:42.000Z,8.5
2022-09-30T07:28:57.000Z,8.5
2022-09-30T07:30:13.000Z,8.6
2022-09-30T07:31:29.000Z,8.6
2022-09-30T07:32:46.000Z,8.6
2022-09-30T07:34:02.000Z,8.6
2022-09-30T07:35:18.000Z,8.7
2022-09-30T07:36:34.000Z,8.8
2022-09-30T07:37:50.000Z,8.9
2022-09-30T07:39:07.000Z,9.1
2022-09-30T07:40:23.000Z,9.2
2022-09-30T07:41:39.000Z,9.3
2022-09-30T07:42:55.000Z,9.3
2022-09-30T07:44:11.000Z,9.5
2022-09-30T07:45:27.000Z,9.6
2022-09-30T07:46:43.000Z,9.7
2022-09-30T07:47:59.000Z,9.8
2022-09-30T07:49:15.000Z,9.8
2022-09-30T07:50:31.000Z,9.8
2022-09-30T07:51:48.000Z,9.8
2022-09-30T07:53:04.000Z,9.8
2022-09-30T07:54:20.000Z,9.8
2022-09-30T07:55:36.000Z,9.7
2022-09-30T07:56:52.000Z,9.7
2022-09-30T07:58:08.000Z,9.8
2022-09-30T07:59:25.000Z,9.9
2022-09-30T08:00:41.000Z,9.9
2022-09-30T08:01:56.000Z,10
2022-09-30T08:03:12.000Z,10.1
2022-09-30T08:04:28.000Z,10.1
2022-09-30T08:05:45.000Z,10.1
2022-09-30T08:07:01.000Z,10.1
2022-09-30T08:08:17.000Z,10.1
2022-09-30T08:09:33.000Z,10.1
2022-09-30T08:10:49.000Z,10.3
2022-09-30T08:12:06.000Z,10.3
2022-09-30T08:13:22.000Z,10.4
2022-09-30T08:14:38.000Z,10.5
2022-09-30T08:15:54.000Z,10.4
2022-09-30T08:17:10.000Z,10.3
2022-09-30T08:18:25.000Z,10.4
2022-09-30T08:19:42.000Z,10.6
2022-09-30T08:20:58.000Z,10.7
2022-09-30T08:22:14.000Z,10.8
2022-09-30T08:23:30.000Z,10.7
2022-09-30T08:24:46.000Z,10.6
2022-09-30T08:26:03.000Z,10.6
2022-09-30T08:27:19.000Z,10.6
2022-09-30T08:28:35.000Z,10.7
2022-09-30T08:29:51.000Z,10.8
2022-09-30T08:31:07.000Z,10.9
2022-09-30T08:32:24.000Z,10.9
2022-09-30T08:33:40.000Z,10.7
2022-09-30T08:34:55.000Z,10.8
2022-09-30T08:36:11.000Z,10.7
2022-09-30T08:37:27.000Z,10.7
2022-09-30T08:38:43.000Z,10.8
2022-09-30T08:40:00.000Z,10.9
2022-09-30T08:41:16.000Z,11
2022-09-30T08:42:32.000Z,11
2022-09-30T08:43:48.000Z,11.1
2022-09-30T08:45:04.000Z,11.1
2022-09-30T08:46:21.000Z,11.2
2022-09-30T08:47:37.000Z,11.2
2022-09-30T08:48:53.000Z,11.2
2022-09-30T08:50:09.000Z,11.2
2022-09-30T08:51:24.000Z,11.2
2022-09-30T08:52:41.000Z,11.2
2022-09-30T08:53:57.000Z,11.3
2022-09-30T08:55:13.000Z,11.4
2022-09-30T08:56:29.000Z,11.6
2022-09-30T08:57:45.000Z,11.6
2022-09-30T08:59:02.000Z,11.5
2022-09-30T09:00:18.000Z,11.6
2022-09-30T09:01:34.000Z,11.9
2022-09-30T09:02:50.000Z,12.2
2022-09-30T09:04:06.000Z,12.4
2022-09-30T09:05:22.000Z,12.4
2022-09-30T09:06:39.000Z,12.4
2022-09-30T09:07:54.000Z,12.4
2022-09-30T09:09:10.000Z,12.4
2022-09-30T09:10:26.000Z,12.2
2022-09-30T09:11:42.000Z,12.3
2022-09-30T09:12:59.000Z,12.4
2022-09-30T09:14:15.000Z,12.6
2022-09-30T09:15:31.000Z,12.8
2022-09-30T09:16:47.000Z,13
2022-09-30T09:18:03.000Z,13.1
2022-09-30T09:19:20.000Z,13.2
2022-09-30T09:20:36.000Z,13
2022-09-30T09:21:52.000Z,13.1
2022-09-30T09:23:08.000Z,13.3
2022-09-30T09:24:24.000Z,13.3
2022-09-30T09:25:41.000Z,13.3
2022-09-30T09:26:57.000Z,13.3
2022-09-30T09:28:13.000Z,13.2
2022-09-30T09:29:29.000Z,13.1
2022-09-30T09:30:45.000Z,13.4
2022-09-30T09:32:02.000Z,13.6
2022-09-30T09:33:18.000Z,13.9
2022-09-30T09:34:34.000Z,13.6
2022-09-30T09:35:50.000Z,13.5
2022-09-30T09:37:06.000Z,13.7
2022-09-30T09:38:22.000Z,13.8
2022-09-30T09:39:39.000Z,14.1
2022-09-30T09:40:54.000Z,14.3
2022-09-30T09:42:10.000Z,14.3
2022-09-30T09:43:26.000Z,14.4
2022-09-30T09:44:42.000Z,14.5
2022-09-30T09:45:59.000Z,14.8
2022-09-30T09:47:15.000Z,14.8
2022-09-30T09:48:31.000Z,14.6
2022-09-30T09:49:47.000Z,14.6
2022-09-30T09:51:03.000Z,14.7
2022-09-30T09:52:20.000Z,14.8
2022-09-30T09:53:36.000Z,15.1
2022-09-30T09:54:52.000Z,15.1
2022-09-30T09:56:08.000Z,14.9
2022-09-30T09:57:23.000Z,15.2
2022-09-30T09:58:39.000Z,15.3
2022-09-30T09:59:56.000Z,15.5
2022-09-30T10:01:12.000Z,15.2
2022-09-30T10:02:28.000Z,14.9
2022-09-30T10:03:44.000Z,15.1
2022-09-30T10:05:00.000Z,15
2022-09-30T10:06:17.000Z,15.2
2022-09-30T10:07:33.000Z,15.6
2022-09-30T10:08:49.000Z,15.9
2022-09-30T10:10:05.000Z,16.2
2022-09-30T10:11:21.000Z,16.4
2022-09-30T10:12:38.000Z,16.7
2022-09-30T10:13:53.000Z,16.4
2022-09-30T10:15:09.000Z,16.1
2022-09-30T10:16:25.000Z,16
2022-09-30T10:17:41.000Z,16.4
2022-09-30T10:18:57.000Z,17
2022-09-30T10:20:13.000Z,17
2022-09-30T10:21:29.000Z,16.8
2022-09-30T10:22:45.000Z,16.6
2022-09-30T10:24:01.000Z,16.6
2022-09-30T10:25:17.000Z,16.6
2022-09-30T10:26:34.000Z,16.3
2022-09-30T10:27:50.000Z,16.3
2022-09-30T10:29:06.000Z,16.5
2022-09-30T10:30:22.000Z,16.6
2022-09-30T10:31:38.000Z,16.6
2022-09-30T10:32:55.000Z,16.5
2022-09-30T10:34:11.000Z,16.1
2022-09-30T10:35:27.000Z,15.8
2022-09-30T10:36:42.000Z,16
2022-09-30T10:37:58.000Z,15.8
2022-09-30T10:39:15.000Z,16.3
2022-09-30T10:40:31.000Z,16.3
2022-09-30T10:41:47.000Z,16.1
2022-09-30T10:43:03.000Z,16.1
2022-09-30T10:44:19.000Z,16.3
2022-09-30T10:45:36.192Z,16.8
2022-09-30T10:46:52.000Z,16.6
2022-09-30T10:48:08.000Z,16.4
2022-09-30T10:49:24.000Z,16.3
2022-09-30T10:50:40.000Z,16.4
2022-09-30T10:51:56.000Z,16.7
2022-09-30T10:53:12.000Z,16.5
2022-09-30T10:54:28.000Z,16.2
2022-09-30T10:55:44.000Z,16.6
2022-09-30T10:57:00.000Z,16.4
2022-09-30T10:58:16.000Z,16.6
2022-09-30T10:59:33.000Z,16.7
2022-09-30T11:00:49.000Z,16.6
2022-09-30T11:02:05.000Z,16.3
2022-09-30T11:03:21.000Z,16.1
2022-09-30T11:04:37.000Z,16.3
2022-09-30T11:05:53.000Z,17
2022-09-30T11:07:10.000Z,17.1
2022-09-30T11:08:26.000Z,16.8
2022-09-30T11:09:41.000Z,17
2022-09-30T11:10:57.000Z,16.8
2022-09-30T11:12:13.000Z,16.6
2022-09-30T11:13:30.000Z,16.9
2022-09-30T11:14:46.000Z,17.1
2022-09-30T11:16:02.000Z,17.1
2022-09-30T11:17:18.000Z,17.8
2022-09-30T11:18:34.000Z,18.1
2022-09-30T11:19:51.000Z,18
2022-09-30T11:21:07.000Z,18.1
2022-09-30T11:22:23.000Z,17.9
2022-09-30T11:23:39.000Z,17.6
2022-09-30T11:24:55.000Z,17.5
2022-09-30T11:26:11.000Z,17.4
2022-09-30T11:27:27.000Z,17.2
2022-09-30T11:28:43.000Z,17.4
2022-09-30T11:29:59.000Z,17.6
2022-09-30T11:31:15.000Z,17.7
2022-09-30T11:32:31.000Z,17.7
2022-09-30T11:33:48.000Z,17.7
2022-09-30T11:35:04.000Z,17.6
2022-09-30T11:36:20.000Z,17.7
2022-09-30T11:37:36.000Z,17.8
2022-09-30T11:38:52.000Z,17.7
2022-09-30T11:40:09.000Z,17.8
2022-09-30T11:41:25.000Z,18.2
2022-09-30T11:42:40.000Z,18.1
2022-09-30T11:43:56.000Z,18.3
2022-09-30T11:45:12.000Z,17.9
2022-09-30T11:46:29.000Z,17.5
2022-09-30T11:47:45.000Z,18
2022-09-30T11:49:01.000Z,17.9
2022-09-30T11:50:17.000Z,17.2
2022-09-30T11:51:33.000Z,17.4
2022-09-30T11:52:49.000Z,17.8
2022-09-30T11:54:06.000Z,17.6
2022-09-30T11:55:22.000Z,17.4
2022-09-30T11:56:38.000Z,17.2
2022-09-30T11:57:54.000Z,17.8
2022-09-30T11:59:09.000Z,18.4
2022-09-30T12:00:26.000Z,18.3
2022-09-30T12:01:42.000Z,17.8
2022-09-30T12:02:58.000Z,17.5
2022-09-30T12:04:14.000Z,18.1
2022-09-30T12:05:30.000Z,18.4
2022-09-30T12:06:47.000Z,18.1
2022-09-30T12:08:03.000Z,18.3
2022-09-30T12:09:19.000Z,18.5
2022-09-30T12:10:35.000Z,18.9
2022-09-30T12:11:51.000Z,18.8
2022-09-30T12:13:08.000Z,18.6
2022-09-30T12:14:24.000Z,18.6
2022-09-30T12:15:39.000Z,18.8
2022-09-30T12:16:55.000Z,19
2022-09-30T12:18:11.000Z,19.1
2022-09-30T12:19:27.000Z,18.9
2022-09-30T12:20:44.000Z,18.8
2022-09-30T12:22:00.000Z,18.9
2022-09-30T12:23:16.000Z,18.9
2022-09-30T12:24:32.000Z,18
2022-09-30T12:25:48.000Z,18
2022-09-30T12:27:05.000Z,18.1
2022-09-30T12:28:21.000Z,18.5
2022-09-30T12:29:37.000Z,17.8
2022-09-30T12:30:53.000Z,17.8
2022-09-30T12:32:08.000Z,17.8
2022-09-30T12:33:25.000Z,18.1
2022-09-30T12:34:41.000Z,18.4
2022-09-30T12:35:57.000Z,18.1
2022-09-30T12:37:13.000Z,18.1
2022-09-30T12:38:29.000Z,18.1
2022-09-30T12:39:46.000Z,17.9
2022-09-30T12:41:02.000Z,17.6
2022-09-30T12:42:18.000Z,17.9
2022-09-30T12:43:34.000Z,18.4
2022-09-30T12:44:50.000Z,18.7
2022-09-30T12:46:06.000Z,18.3
2022-09-30T12:47:23.000Z,17.9
2022-09-30T12:48:38.000Z,18.2
2022-09-30T12:49:54.000Z,17.6
2022-09-30T12:51:10.000Z,17.4
2022-09-30T12:52:26.000Z,17.4
2022-09-30T12:53:43.000Z,17.7
2022-09-30T12:54:59.000Z,18
2022-09-30T12:56:15.000Z,18.1
2022-09-30T12:57:31.000Z,18.5
2022-09-30T12:58:47.000Z,18.5
2022-09-30T13:00:04.000Z,18.1
2022-09-30T13:01:20.000Z,18
2022-09-30T13:02:36.000Z,18.2
2022-09-30T13:03:52.000Z,18.1
2022-09-30T13:05:07.000Z,18.2
2022-09-30T13:06:23.000Z,18.5
2022-09-30T13:08:56.595Z,17.2
2022-09-30T13:10:12.000Z,16.8
2022-09-30T13:11:28.000Z,17.2
2022-09-30T13:12:44.000Z,16.9
2022-09-30T13:14:01.000Z,16.7
2022-09-30T13:15:17.000Z,17.5
2022-09-30T13:16:33.000Z,18.1
2022-09-30T13:17:49.000Z,17.9
2022-09-30T13:19:05.000Z,17.5
2022-09-30T13:20:22.000Z,17.1
2022-09-30T13:21:37.000Z,17.2
2022-09-30T13:22:53.000Z,17
2022-09-30T13:24:09.000Z,16.6
2022-09-30T13:25:25.000Z,17.1
2022-09-30T13:26:42.000Z,17.7
2022-09-30T13:27:58.000Z,17.6
2022-09-30T13:29:14.000Z,17.9
2022-09-30T13:30:30.000Z,18.3
2022-09-30T13:31:46.000Z,18.5
2022-09-30T13:33:02.000Z,18
2022-09-30T13:34:19.000Z,17.1
2022-09-30T13:35:35.000Z,16.9
2022-09-30T13:36:51.000Z,17.6
2022-09-30T13:38:06.000Z,17.6
2022-09-30T13:39:22.000Z,17.2
2022-09-30T13:40:39.000Z,16.9
2022-09-30T13:41:55.000Z,16.7
2022-09-30T13:43:11.000Z,17.1
2022-09-30T13:44:27.000Z,17.3
2022-09-30T13:45:43.000Z,16.8
2022-09-30T13:47:00.000Z,17
2022-09-30T13:48:16.000Z,17.9
2022-09-30T13:49:32.000Z,18.1
2022-09-30T13:50:48.000Z,18
2022-09-30T13:52:04.000Z,17.6
2022-09-30T13:53:20.000Z,17.3
2022-09-30T13:54:36.000Z,16.9
2022-09-30T13:55:52.000Z,17.1
2022-09-30T13:57:08.000Z,17.8
2022-09-30T13:58:24.000Z,18.3
2022-09-30T13:59:40.000Z,18.7
2022-09-30T14:00:57.000Z,18.7
2022-09-30T14:02:13.000Z,18.7
2022-09-30T14:03:29.000Z,17.8
2022-09-30T14:04:45.000Z,17.1
2022-09-30T14:06:01.000Z,17.3
2022-09-30T14:07:18.000Z,17.9
2022-09-30T14:08:34.000Z,18
2022-09-30T14:09:50.000Z,18.4
2022-09-30T14:11:05.000Z,18
2022-09-30T14:12:21.000Z,18
2022-09-30T14:13:38.000Z,18
2022-09-30T14:14:54.000Z,18.2
2022-09-30T14:16:10.000Z,17.7
2022-09-30T14:17:26.000Z,18
2022-09-30T14:18:42.000Z,18.6
2022-09-30T14:19:58.000Z,18.8
2022-09-30T14:21:15.000Z,18.5
2022-09-30T14:22:31.000Z,18.3
2022-09-30T14:23:47.000Z,18.1
2022-09-30T14:25:03.000Z,18.3
2022-09-30T14:26:19.000Z,18.6
2022-09-30T14:27:35.000Z,18.7
2022-09-30T14:28:51.000Z,18.3
2022-09-30T14:30:07.000Z,18.7
2022-09-30T14:31:23.000Z,18.9
2022-09-30T14:32:39.000Z,18.9
2022-09-30T14:33:56.000Z,18.7
2022-09-30T14:35:11.000Z,18.8
2022-09-30T14:36:27.000Z,18.9
2022-09-30T14:37:43.000Z,18.7
2022-09-30T14:38:59.000Z,18.2
2022-09-30T14:40:16.000Z,18.1
2022-09-30T14:41:32.000Z,17.9
2022-09-30T14:42:48.000Z,17.5
2022-09-30T14:44:04.000Z,17.9
2022-09-30T14:45:20.000Z,18.2
2022-09-30T14:46:36.000Z,18.1
2022-09-30T14:47:53.000Z,17.8
2022-09-30T14:49:09.000Z,17.9
2022-09-30T14:50:25.000Z,18.5
2022-09-30T14:51:40.000Z,18.5
2022-09-30T14:52:56.000Z,18.5
2022-09-30T14:54:13.000Z,18.8
2022-09-30T14:55:29.000Z,18.8
2022-09-30T14:56:45.000Z,18.4
2022-09-30T14:58:01.000Z,18.4
2022-09-30T14:59:17.000Z,18.6
2022-09-30T15:00:34.000Z,18.5
2022-09-30T15:01:50.000Z,18.4
2022-09-30T15:03:06.000Z,17.9
2022-09-30T15:04:22.000Z,17.7
2022-09-30T15:05:38.000Z,17.5
2022-09-30T15:06:55.000Z,17.3
2022-09-30T15:08:10.000Z,17
2022-09-30T15:09:26.000Z,17.4
2022-09-30T15:10:42.000Z,17.2
2022-09-30T15:11:58.000Z,17.3
2022-09-30T15:13:14.000Z,16.9
2022-09-30T15:14:31.000Z,17.3
2022-09-30T15:15:47.000Z,17.7
2022-09-30T15:17:03.000Z,18
2022-09-30T15:18:19.000Z,17.9
2022-09-30T15:19:35.000Z,17.3
2022-09-30T15:20:52.000Z,17.1
2022-09-30T15:22:08.000Z,17.2
2022-09-30T15:23:24.000Z,17.3
2022-09-30T15:24:39.000Z,17.4
2022-09-30T15:25:55.000Z,17.3
2022-09-30T15:27:12.000Z,17
2022-09-30T15:28:28.000Z,16.8
2022-09-30T15:29:44.000Z,16.8
2022-09-30T15:31:00.000Z,17
2022-09-30T15:32:16.000Z,17.1
2022-09-30T15:33:32.000Z,17.2
2022-09-30T15:34:49.000Z,17.2
2022-09-30T15:36:05.000Z,17
2022-09-30T15:37:21.000Z,17.1
2022-09-30T15:38:37.000Z,16.8
2022-09-30T15:39:53.000Z,16.7
2022-09-30T15:41:09.000Z,17
2022-09-30T15:42:25.000Z,16.9
2022-09-30T15:43:41.000Z,16.8
2022-09-30T15:44:57.000Z,16.6
2022-09-30T15:46:13.000Z,16.5
2022-09-30T15:47:30.000Z,16.5
2022-09-30T15:48:46.000Z,16.6
2022-09-30T15:50:02.000Z,16.6
2022-09-30T15:51:18.000Z,16.6
2022-09-30T15:52:34.000Z,16.6
2022-09-30T15:53:51.000Z,16.6
2022-09-30T15:55:07.000Z,16.5
2022-09-30T15:56:23.000Z,16.3
2022-09-30T15:57:38.000Z,16.2
2022-09-30T15:58:54.000Z,16.2
2022-09-30T16:00:10.000Z,16.3
2022-09-30T16:01:27.000Z,16.4
2022-09-30T16:02:43.000Z,16.7
2022-09-30T16:03:59.000Z,16.8
2022-09-30T16:05:15.000Z,16.8
2022-09-30T16:06:31.000Z,16.8
2022-09-30T16:07:48.000Z,16.8
2022-09-30T16:09:04.000Z,16.9
2022-09-30T16:10:20.000Z,17
2022-09-30T16:11:36.000Z,16.8
2022-09-30T16:12:52.000Z,16.9
2022-09-30T16:14:08.000Z,17
2022-09-30T16:15:24.000Z,17
2022-09-30T16:16:40.000Z,16.9
2022-09-30T16:17:56.000Z,16.8
2022-09-30T16:19:12.000Z,16.8
2022-09-30T16:20:29.000Z,16.6
2022-09-30T16:21:45.000Z,16.7
2022-09-30T16:23:01.000Z,16.8
2022-09-30T16:24:17.000Z,16.7
2022-09-30T16:25:33.000Z,16.6
2022-09-30T16:26:49.000Z,16.4
2022-09-30T16:28:06.000Z,16.3
2022-09-30T16:29:22.000Z,16.2
2022-09-30T16:30:38.000Z,16.2
2022-09-30T16:31:53.000Z,16.3
2022-09-30T16:33:09.000Z,16.3
2022-09-30T16:34:26.000Z,16.3
2022-09-30T16:35:42.000Z,16.3
2022-09-30T16:36:58.000Z,16.2
2022-09-30T16:38:14.000Z,16.3
2022-09-30T16:39:30.000Z,16.3
2022-09-30T16:40:47.000Z,16.3
2022-09-30T16:42:03.000Z,16.3
2022-09-30T16:43:19.000Z,16.2
2022-09-30T16:44:35.000Z,16.1
2022-09-30T16:45:51.000Z,16.1
2022-09-30T16:47:08.000Z,16.1
2022-09-30T16:48:23.000Z,16
2022-09-30T16:49:39.000Z,15.9
2022-09-30T16:50:55.000Z,15.8
2022-09-30T16:52:11.000Z,15.7
2022-09-30T16:53:27.000Z,15.6
2022-09-30T16:54:44.000Z,15.5
2022-09-30T16:56:00.000Z,15.5
2022-09-30T16:57:16.000Z,15.4
2022-09-30T16:58:32.000Z,15.4
2022-09-30T16:59:48.000Z,15.4
2022-09-30T17:01:05.000Z,15.3
2022-09-30T17:02:21.000Z,15.3
2022-09-30T17:03:37.000Z,15.2
2022-09-30T17:04:52.000Z,15.2
2022-09-30T17:06:08.000Z,15.2
2022-09-30T17:07:25.000Z,15.1
2022-09-30T17:08:41.000Z,15.1
2022-09-30T17:09:57.000Z,15.1
2022-09-30T17:11:13.000Z,15
2022-09-30T17:12:29.000Z,15
2022-09-30T17:13:45.000Z,14.9
2022-09-30T17:15:02.000Z,14.9
2022-09-30T17:16:18.000Z,14.9
2022-09-30T17:17:34.000Z,14.9